createdAt,value
2022-08-19T00:00:30.068Z,9.680985
2022-08-19T00:01:30.606Z,9.681341
2022-08-19T00:02:30.038Z,9.681618
2022-08-19T00:03:30.043Z,9.681439
2022-08-19T00:04:30.174Z,9.681554
2022-08-19T00:05:30.024Z,9.681398
2022-08-19T00:06:30.012Z,9.681134
2022-08-19T00:07:30.005Z,9.681037
2022-08-19T00:08:29.996Z,9.681190
2022-08-19T00:09:29.976Z,9.681026
2022-08-19T00:10:29.994Z,9.681281
2022-08-19T00:11:29.979Z,9.681285
2022-08-19T00:12:29.974Z,9.681417
2022-08-19T00:13:29.950Z,9.681169
2022-08-19T00:14:29.948Z,9.681266
2022-08-19T00:15:29.965Z,9.681384
2022-08-19T00:16:29.934Z,9.681358
2022-08-19T00:17:29.942Z,9.681182
2022-08-19T00:18:29.918Z,9.681296
2022-08-19T00:19:29.919Z,9.681273
2022-08-19T00:20:29.902Z,9.681238
2022-08-19T00:21:29.923Z,9.681230
2022-08-19T00:22:29.887Z,9.681358
2022-08-19T00:23:29.893Z,9.681106
2022-08-19T00:24:29.886Z,9.680867
2022-08-19T00:25:30.734Z,9.680863
2022-08-19T00:26:29.868Z,9.681231
2022-08-19T00:27:29.878Z,9.681171
2022-08-19T00:28:29.849Z,9.681039
2022-08-19T00:29:29.839Z,9.681384
2022-08-19T00:30:29.836Z,9.681165
2022-08-19T00:31:29.845Z,9.680809
2022-08-19T00:32:29.831Z,9.681256
2022-08-19T00:33:29.823Z,9.681334
2022-08-19T00:34:29.821Z,9.681311
2022-08-19T00:35:29.809Z,9.680987
2022-08-19T00:36:29.783Z,9.681175
2022-08-19T00:37:29.784Z,9.681257
2022-08-19T00:38:37.398Z,9.680853
2022-08-19T00:39:30.814Z,9.681119
2022-08-19T00:40:29.754Z,9.681364
2022-08-19T00:41:29.756Z,9.681382
2022-08-19T00:42:29.760Z,9.680973
2022-08-19T00:43:29.740Z,9.681287
2022-08-19T00:44:29.731Z,9.681033
2022-08-19T00:45:29.722Z,9.681053
2022-08-19T00:46:29.717Z,9.681145
2022-08-19T00:47:29.710Z,9.680996
2022-08-19T00:48:29.719Z,9.680899
2022-08-19T00:49:29.712Z,9.681259
2022-08-19T00:50:29.694Z,9.681289
2022-08-19T00:51:29.673Z,9.681088
2022-08-19T00:52:29.686Z,9.680896
2022-08-19T00:53:29.661Z,9.680486
2022-08-19T00:54:29.903Z,9.680982
2022-08-19T00:55:29.642Z,9.681133
2022-08-19T00:56:29.636Z,9.680901
2022-08-19T00:57:29.627Z,9.681136
2022-08-19T00:58:29.649Z,9.681490
2022-08-19T01:00:00.516Z,9.681516
2022-08-19T01:00:30.599Z,9.681122
2022-08-19T01:01:29.652Z,9.681180
2022-08-19T01:02:29.588Z,9.681623
2022-08-19T01:03:29.578Z,9.681199
2022-08-19T01:04:30.591Z,9.681442
2022-08-19T01:05:29.565Z,9.681092
2022-08-19T01:06:29.552Z,9.681500
2022-08-19T01:07:37.607Z,9.680820
2022-08-19T01:08:30.570Z,9.681277
2022-08-19T01:09:29.541Z,9.681374
2022-08-19T01:10:33.537Z,9.681627
2022-08-19T01:11:30.527Z,9.681478
2022-08-19T01:12:29.512Z,9.680971
2022-08-19T01:13:29.504Z,9.681142
2022-08-19T01:14:30.532Z,9.681236
2022-08-19T01:15:29.496Z,9.680938
2022-08-19T01:16:29.505Z,9.681107
2022-08-19T01:17:29.482Z,9.681201
2022-08-19T01:18:29.485Z,9.681134
2022-08-19T01:19:29.466Z,9.681220
2022-08-19T01:20:29.454Z,9.681613
2022-08-19T01:21:29.466Z,9.681305
2022-08-19T01:22:33.524Z,9.681104
2022-08-19T01:23:29.436Z,9.681309
2022-08-19T01:24:29.433Z,9.681054
2022-08-19T01:25:29.421Z,9.681211
2022-08-19T01:26:29.417Z,9.681439
2022-08-19T01:27:29.504Z,9.681228
2022-08-19T01:28:39.640Z,9.681001
2022-08-19T01:29:29.403Z,9.680842
2022-08-19T01:30:29.392Z,9.681251
2022-08-19T01:31:29.394Z,9.681237
2022-08-19T01:32:33.237Z,9.681921
2022-08-19T01:33:29.371Z,9.681571
2022-08-19T01:34:29.377Z,9.681214
2022-08-19T01:35:29.351Z,9.681309
2022-08-19T01:36:29.348Z,9.680672
2022-08-19T01:37:29.351Z,9.681230
2022-08-19T01:38:29.336Z,9.680758
2022-08-19T01:39:29.421Z,9.681421
2022-08-19T01:40:29.327Z,9.680924
2022-08-19T01:41:29.302Z,9.680922
2022-08-19T01:42:30.587Z,9.681119
2022-08-19T01:43:29.300Z,9.680917
2022-08-19T01:44:29.291Z,9.681517
2022-08-19T01:45:29.304Z,9.681126
2022-08-19T01:46:29.273Z,9.681593
2022-08-19T01:47:29.266Z,9.681382
2022-08-19T01:48:29.258Z,9.681222
2022-08-19T01:49:29.264Z,9.681577
2022-08-19T01:50:29.264Z,9.681437
2022-08-19T01:51:29.237Z,9.681644
2022-08-19T01:52:30.233Z,9.681367
2022-08-19T01:53:30.614Z,9.681350
2022-08-19T01:54:29.215Z,9.681467
2022-08-19T01:55:29.215Z,9.681745
2022-08-19T01:56:29.217Z,9.682128
2022-08-19T01:57:29.189Z,9.681029
2022-08-19T01:58:29.197Z,9.679333
2022-08-19T01:59:29.177Z,9.680350
2022-08-19T02:00:29.195Z,9.681000
2022-08-19T02:01:29.180Z,9.681023
2022-08-19T02:02:29.158Z,9.680952
2022-08-19T02:03:29.143Z,9.681231
2022-08-19T02:04:29.142Z,9.681376
2022-08-19T02:05:29.135Z,9.681164
2022-08-19T02:06:29.142Z,9.681532
2022-08-19T02:07:29.119Z,9.681532
2022-08-19T02:08:29.128Z,9.681723
2022-08-19T02:09:29.145Z,9.681888
2022-08-19T02:10:29.095Z,9.681186
2022-08-19T02:11:29.093Z,9.681489
2022-08-19T02:12:29.074Z,9.682313
2022-08-19T02:13:29.071Z,9.682449
2022-08-19T02:14:29.058Z,9.681373
2022-08-19T02:15:29.072Z,9.680941
2022-08-19T02:16:29.045Z,9.681118
2022-08-19T02:17:29.047Z,9.681487
2022-08-19T02:18:29.045Z,9.681789
2022-08-19T02:19:29.026Z,9.682381
2022-08-19T02:20:29.011Z,9.682575
2022-08-19T02:21:29.007Z,9.682705
2022-08-19T02:22:28.998Z,9.682654
2022-08-19T02:23:29.011Z,9.682160
2022-08-19T02:24:28.982Z,9.682114
2022-08-19T02:25:28.992Z,9.681564
2022-08-19T02:26:28.986Z,9.681960
2022-08-19T02:27:28.963Z,9.682507
2022-08-19T02:28:28.958Z,9.682247
2022-08-19T02:29:28.956Z,9.681915
2022-08-19T02:30:28.965Z,9.681623
2022-08-19T02:31:28.931Z,9.681461
2022-08-19T02:32:28.925Z,9.681211
2022-08-19T02:33:28.926Z,9.681382
2022-08-19T02:34:28.910Z,9.681369
2022-08-19T02:35:28.914Z,9.681321
2022-08-19T02:36:28.915Z,9.681487
2022-08-19T02:37:28.897Z,9.681466
2022-08-19T02:38:28.891Z,9.681735
2022-08-19T02:39:28.875Z,9.681116
2022-08-19T02:40:28.863Z,9.681040
2022-08-19T02:41:28.886Z,9.681036
2022-08-19T02:42:28.858Z,9.680954
2022-08-19T02:43:28.843Z,9.681250
2022-08-19T02:44:31.559Z,9.681229
2022-08-19T02:45:28.832Z,9.681144
2022-08-19T02:46:28.821Z,9.680835
2022-08-19T02:47:28.838Z,9.680865
2022-08-19T02:48:28.814Z,9.681148
2022-08-19T02:49:28.826Z,9.681124
2022-08-19T02:50:28.797Z,9.681169
2022-08-19T02:51:28.801Z,9.681188
2022-08-19T02:52:28.785Z,9.681007
2022-08-19T02:53:28.773Z,9.681367
2022-08-19T02:54:28.785Z,9.681499
2022-08-19T02:55:28.756Z,9.681462
2022-08-19T02:56:28.772Z,9.681309
2022-08-19T02:57:28.744Z,9.681076
2022-08-19T02:58:28.760Z,9.681130
2022-08-19T02:59:28.724Z,9.681035
2022-08-19T03:00:28.713Z,9.681039
2022-08-19T03:01:28.754Z,9.680873
2022-08-19T03:02:28.727Z,9.680819
2022-08-19T03:03:28.698Z,9.681065
2022-08-19T03:04:28.695Z,9.681117
2022-08-19T03:05:46.907Z,9.681084
2022-08-19T03:06:29.671Z,9.681028
2022-08-19T03:07:28.675Z,9.680975
2022-08-19T03:08:28.667Z,9.681142
2022-08-19T03:09:28.647Z,9.681080
2022-08-19T03:10:28.631Z,9.681028
2022-08-19T03:11:28.638Z,9.681193
2022-08-19T03:12:28.628Z,9.681398
2022-08-19T03:13:28.633Z,9.681277
2022-08-19T03:14:28.634Z,9.681129
2022-08-19T03:15:28.596Z,9.681373
2022-08-19T03:16:28.596Z,9.681097
2022-08-19T03:17:28.606Z,9.681326
2022-08-19T03:18:28.571Z,9.681249
2022-08-19T03:19:28.572Z,9.681291
2022-08-19T03:20:28.560Z,9.681178
2022-08-19T03:21:28.553Z,9.681165
2022-08-19T03:22:28.545Z,9.680952
2022-08-19T03:23:28.561Z,9.681049
2022-08-19T03:24:28.539Z,9.681205
2022-08-19T03:25:28.526Z,9.681139
2022-08-19T03:26:28.514Z,9.681046
2022-08-19T03:27:34.444Z,9.681200
2022-08-19T03:28:29.527Z,9.681030
2022-08-19T03:29:28.505Z,9.681048
2022-08-19T03:30:28.488Z,9.681363
2022-08-19T03:31:44.795Z,9.681159
2022-08-19T03:32:33.044Z,9.681072
2022-08-19T03:33:28.718Z,9.681274
2022-08-19T03:34:28.473Z,9.681123
2022-08-19T03:35:28.456Z,9.681140
2022-08-19T03:36:28.555Z,9.681395
2022-08-19T03:37:28.440Z,9.681307
2022-08-19T03:38:28.431Z,9.681076
2022-08-19T03:39:28.440Z,9.681105
2022-08-19T03:40:28.408Z,9.681211
2022-08-19T03:41:43.312Z,9.681378
2022-08-19T03:42:38.690Z,9.681302
2022-08-19T03:43:29.392Z,9.681281
2022-08-19T03:44:28.382Z,9.680983
2022-08-19T03:45:28.379Z,9.681185
2022-08-19T03:46:28.373Z,9.681340
2022-08-19T03:47:28.360Z,9.681392
2022-08-19T03:48:28.373Z,9.681317
2022-08-19T03:49:29.098Z,9.681275
2022-08-19T03:50:28.338Z,9.681382
2022-08-19T03:51:30.880Z,9.681352
2022-08-19T03:52:28.347Z,9.681121
2022-08-19T03:53:28.309Z,9.681154
2022-08-19T03:54:28.318Z,9.681193
2022-08-19T03:55:28.300Z,9.681088
2022-08-19T03:56:28.290Z,9.681108
2022-08-19T03:57:32.126Z,9.681257
2022-08-19T03:58:28.295Z,9.681473
2022-08-19T03:59:28.271Z,9.681064
2022-08-19T04:00:28.279Z,9.681362
2022-08-19T04:01:30.398Z,9.681119
2022-08-19T04:02:29.239Z,9.681273
2022-08-19T04:03:28.266Z,9.680985
2022-08-19T04:04:29.295Z,9.680812
2022-08-19T04:05:28.226Z,9.681261
2022-08-19T04:06:28.213Z,9.681134
2022-08-19T04:07:28.206Z,9.680776
2022-08-19T04:08:28.197Z,9.680888
2022-08-19T04:09:28.215Z,9.680937
2022-08-19T04:10:28.187Z,9.680513
2022-08-19T04:11:43.434Z,9.680704
2022-08-19T04:12:29.185Z,9.680851
2022-08-19T04:13:28.165Z,9.680841
2022-08-19T04:14:28.169Z,9.681047
2022-08-19T04:15:28.146Z,9.680907
2022-08-19T04:16:35.073Z,9.680930
2022-08-19T04:17:28.161Z,9.681127
2022-08-19T04:18:28.134Z,9.681114
2022-08-19T04:19:28.115Z,9.681258
2022-08-19T04:20:28.114Z,9.681044
2022-08-19T04:21:28.108Z,9.681623
2022-08-19T04:22:28.101Z,9.681312
2022-08-19T04:23:28.111Z,9.681249
2022-08-19T04:24:28.079Z,9.681777
2022-08-19T04:25:28.092Z,9.681911
2022-08-19T04:26:28.070Z,9.681823
2022-08-19T04:27:28.060Z,9.680606
2022-08-19T04:28:28.067Z,9.680160
2022-08-19T04:29:28.078Z,9.680636
2022-08-19T04:30:28.059Z,9.681175
2022-08-19T04:31:28.032Z,9.681135
2022-08-19T04:32:28.034Z,9.681340
2022-08-19T04:33:28.533Z,9.681108
2022-08-19T04:34:28.009Z,9.680910
2022-08-19T04:35:28.000Z,9.680068
2022-08-19T04:36:28.010Z,9.680485
2022-08-19T04:37:35.430Z,9.681021
2022-08-19T04:38:28.982Z,9.680565
2022-08-19T04:39:27.978Z,9.680605
2022-08-19T04:40:27.961Z,9.680489
2022-08-19T04:41:27.956Z,9.680418
2022-08-19T04:42:30.753Z,9.680588
2022-08-19T04:43:27.947Z,9.680815
2022-08-19T04:44:27.941Z,9.680806
2022-08-19T04:45:27.933Z,9.680890
2022-08-19T04:46:39.840Z,9.680841
2022-08-19T04:47:48.218Z,9.680963
2022-08-19T04:48:28.930Z,9.680775
2022-08-19T04:49:27.906Z,9.680822
2022-08-19T04:50:27.953Z,9.680923
2022-08-19T04:51:27.885Z,9.680661
2022-08-19T04:52:27.876Z,9.680485
2022-08-19T04:53:27.866Z,9.681276
2022-08-19T04:54:37.433Z,9.680920
2022-08-19T04:55:28.853Z,9.681494
2022-08-19T04:56:27.857Z,9.681249
2022-08-19T04:57:27.844Z,9.681007
2022-08-19T04:58:27.831Z,9.680949
2022-08-19T04:59:27.853Z,9.680894
2022-08-19T05:00:27.818Z,9.680768
2022-08-19T05:01:27.832Z,9.680661
2022-08-19T05:02:27.801Z,9.680817
2022-08-19T05:03:30.566Z,9.681116
2022-08-19T05:04:27.810Z,9.680863
2022-08-19T05:05:27.802Z,9.680925
2022-08-19T05:06:27.771Z,9.681415
2022-08-19T05:07:27.765Z,9.681841
2022-08-19T05:08:31.354Z,9.682370
2022-08-19T05:09:27.752Z,9.681379
2022-08-19T05:10:27.739Z,9.681149
2022-08-19T05:11:27.754Z,9.681189
2022-08-19T05:12:29.374Z,9.681231
2022-08-19T05:13:27.723Z,9.680651
2022-08-19T05:14:27.710Z,9.679513
2022-08-19T05:15:27.725Z,9.680212
2022-08-19T05:16:27.701Z,9.680360
2022-08-19T05:17:29.646Z,9.680780
2022-08-19T05:18:27.694Z,9.680773
2022-08-19T05:19:27.683Z,9.680454
2022-08-19T05:20:27.698Z,9.680502
2022-08-19T05:21:27.664Z,9.680601
2022-08-19T05:22:27.656Z,9.680762
2022-08-19T05:23:27.654Z,9.680738
2022-08-19T05:24:27.639Z,9.680905
2022-08-19T05:25:27.648Z,9.680712
2022-08-19T05:26:27.619Z,9.681271
2022-08-19T05:27:27.638Z,9.681271
2022-08-19T05:28:27.614Z,9.680952
2022-08-19T05:29:27.594Z,9.680891
2022-08-19T05:30:42.377Z,9.680905
2022-08-19T05:31:28.609Z,9.681046
2022-08-19T05:32:27.576Z,9.681401
2022-08-19T05:33:27.567Z,9.681444
2022-08-19T05:34:27.553Z,9.681650
2022-08-19T05:35:27.567Z,9.682181
2022-08-19T05:36:27.550Z,9.681853
2022-08-19T05:37:27.534Z,9.681321
2022-08-19T05:38:27.526Z,9.681567
2022-08-19T05:39:27.525Z,9.681134
2022-08-19T05:40:27.528Z,9.681287
2022-08-19T05:41:27.528Z,9.681322
2022-08-19T05:42:27.552Z,9.681090
2022-08-19T05:43:27.496Z,9.680945
2022-08-19T05:44:27.482Z,9.680783
2022-08-19T05:45:27.470Z,9.681075
2022-08-19T05:46:27.965Z,9.681076
2022-08-19T05:47:27.499Z,9.680982
2022-08-19T05:48:27.449Z,9.681126
2022-08-19T05:49:27.448Z,9.680793
2022-08-19T05:50:27.438Z,9.681091
2022-08-19T05:51:29.258Z,9.681066
2022-08-19T05:52:27.423Z,9.681059
2022-08-19T05:53:27.439Z,9.681051
2022-08-19T05:54:27.407Z,9.680974
2022-08-19T05:55:27.435Z,9.681096
2022-08-19T05:56:27.403Z,9.681339
2022-08-19T05:57:27.387Z,9.681305
2022-08-19T05:58:28.234Z,9.681364
2022-08-19T05:59:27.373Z,9.681273
2022-08-19T06:00:27.385Z,9.681395
2022-08-19T06:01:27.416Z,9.681394
2022-08-19T06:02:27.468Z,9.681450
2022-08-19T06:03:27.348Z,9.681199
2022-08-19T06:04:27.356Z,9.681327
2022-08-19T06:05:27.334Z,9.681137
2022-08-19T06:06:27.359Z,9.681079
2022-08-19T06:07:27.415Z,9.681306
2022-08-19T06:08:34.277Z,9.681116
2022-08-19T06:09:28.297Z,9.681092
2022-08-19T06:10:27.361Z,9.681078
2022-08-19T06:11:27.278Z,9.681191
2022-08-19T06:12:27.268Z,9.681408
2022-08-19T06:13:27.286Z,9.681348
2022-08-19T06:14:28.038Z,9.681310
2022-08-19T06:15:27.246Z,9.681220
2022-08-19T06:16:27.243Z,9.681300
2022-08-19T06:17:27.234Z,9.681217
2022-08-19T06:18:27.255Z,9.681132
2022-08-19T06:19:27.218Z,9.681130
2022-08-19T06:20:52.593Z,9.681039
2022-08-19T06:21:28.228Z,9.681115
2022-08-19T06:22:27.194Z,9.681178
2022-08-19T06:23:27.203Z,9.681062
2022-08-19T06:24:27.178Z,9.680934
2022-08-19T06:25:30.419Z,9.680846
2022-08-19T06:26:27.162Z,9.681267
2022-08-19T06:27:27.159Z,9.681241
2022-08-19T06:28:27.153Z,9.681106
2022-08-19T06:29:27.149Z,9.681574
2022-08-19T06:30:27.165Z,9.681964
2022-08-19T06:31:27.128Z,9.681494
2022-08-19T06:32:27.116Z,9.681149
2022-08-19T06:33:27.111Z,9.681273
2022-08-19T06:34:27.105Z,9.680987
2022-08-19T06:35:27.100Z,9.680905
2022-08-19T06:36:27.142Z,9.680914
2022-08-19T06:37:27.092Z,9.680840
2022-08-19T06:38:27.096Z,9.680953
2022-08-19T06:39:27.071Z,9.681020
2022-08-19T06:40:27.084Z,9.681149
2022-08-19T06:41:27.071Z,9.681078
2022-08-19T06:42:27.061Z,9.680972
2022-08-19T06:43:28.120Z,9.681087
2022-08-19T06:44:27.038Z,9.681114
2022-08-19T06:45:34.749Z,9.681062
2022-08-19T06:46:28.049Z,9.681061
2022-08-19T06:47:28.845Z,9.681043
2022-08-19T06:48:27.012Z,9.681314
2022-08-19T06:49:27.003Z,9.681069
2022-08-19T06:50:26.987Z,9.681011
2022-08-19T06:51:27.052Z,9.681048
2022-08-19T06:52:27.002Z,9.681164
2022-08-19T06:53:26.987Z,9.681260
2022-08-19T06:54:30.939Z,9.681373
2022-08-19T06:55:26.953Z,9.681360
2022-08-19T06:56:26.951Z,9.681503
2022-08-19T06:57:26.978Z,9.681210
2022-08-19T06:58:26.956Z,9.681345
2022-08-19T06:59:26.942Z,9.681077
2022-08-19T07:00:27.091Z,9.680945
2022-08-19T07:01:26.920Z,9.680872
2022-08-19T07:02:26.919Z,9.681071
2022-08-19T07:03:26.931Z,9.681131
2022-08-19T07:04:26.905Z,9.680832
2022-08-19T07:05:26.891Z,9.680970
2022-08-19T07:06:43.559Z,9.681003
2022-08-19T07:07:27.869Z,9.681103
2022-08-19T07:08:26.925Z,9.681062
2022-08-19T07:09:26.874Z,9.681204
2022-08-19T07:10:26.860Z,9.681091
2022-08-19T07:11:26.848Z,9.680675
2022-08-19T07:12:26.842Z,9.680825
2022-08-19T07:13:26.826Z,9.680773
2022-08-19T07:14:26.816Z,9.680943
2022-08-19T07:15:26.834Z,9.681123
2022-08-19T07:16:29.359Z,9.681011
2022-08-19T07:17:26.794Z,9.681258
2022-08-19T07:18:26.797Z,9.681946
2022-08-19T07:19:26.793Z,9.681481
2022-08-19T07:20:28.579Z,9.681099
2022-08-19T07:21:26.787Z,9.681042
2022-08-19T07:22:26.758Z,9.681005
2022-08-19T07:23:26.821Z,9.680872
2022-08-19T07:24:26.741Z,9.681011
2022-08-19T07:25:32.083Z,9.680748
2022-08-19T07:26:28.272Z,9.681000
2022-08-19T07:27:26.720Z,9.680790
2022-08-19T07:28:27.810Z,9.681121
2022-08-19T07:29:28.548Z,9.681021
2022-08-19T07:30:26.695Z,9.681029
2022-08-19T07:31:26.692Z,9.681049
2022-08-19T07:32:26.709Z,9.681142
2022-08-19T07:33:27.958Z,9.681283
2022-08-19T07:34:26.671Z,9.681230
2022-08-19T07:35:26.670Z,9.680581
2022-08-19T07:36:26.652Z,9.681164
2022-08-19T07:37:32.014Z,9.681157
2022-08-19T07:38:27.660Z,9.680891
2022-08-19T07:39:26.636Z,9.680687
2022-08-19T07:40:26.620Z,9.681158
2022-08-19T07:41:26.614Z,9.681196
2022-08-19T07:42:26.606Z,9.681090
2022-08-19T07:43:31.379Z,9.681730
2022-08-19T07:44:26.598Z,9.680801
2022-08-19T07:45:26.590Z,9.681190
2022-08-19T07:46:26.575Z,9.680732
2022-08-19T07:47:48.354Z,9.680704
2022-08-19T07:48:27.591Z,9.680437
2022-08-19T07:49:26.553Z,9.680626
2022-08-19T07:50:26.558Z,9.680493
2022-08-19T07:51:36.169Z,9.680776
2022-08-19T07:52:27.535Z,9.680058
2022-08-19T07:53:26.558Z,9.680090
2022-08-19T07:54:26.513Z,9.680420
2022-08-19T07:55:42.025Z,9.680512
2022-08-19T07:56:27.512Z,9.680916
2022-08-19T07:57:26.496Z,9.680870
2022-08-19T07:58:26.517Z,9.680889
2022-08-19T07:59:26.481Z,9.680985
2022-08-19T08:00:26.539Z,9.680998
2022-08-19T08:01:26.514Z,9.680937
2022-08-19T08:02:26.458Z,9.681030
2022-08-19T08:03:26.461Z,9.681062
2022-08-19T08:04:26.469Z,9.681519
2022-08-19T08:05:26.450Z,9.681207
2022-08-19T08:06:26.433Z,9.681353
2022-08-19T08:07:31.559Z,9.681459
2022-08-19T08:08:27.641Z,9.681720
2022-08-19T08:09:26.413Z,9.681087
2022-08-19T08:10:26.497Z,9.680707
2022-08-19T08:11:26.399Z,9.680550
2022-08-19T08:12:35.126Z,9.680336
2022-08-19T08:13:27.407Z,9.680445
2022-08-19T08:14:29.519Z,9.680975
2022-08-19T08:15:27.424Z,9.681766
2022-08-19T08:16:26.357Z,9.681532
2022-08-19T08:17:30.999Z,9.681505
2022-08-19T08:18:27.627Z,9.681425
2022-08-19T08:19:26.341Z,9.681425
2022-08-19T08:20:26.350Z,9.681425
2022-08-19T08:21:26.330Z,9.681425
2022-08-19T08:22:26.316Z,9.681425
2022-08-19T08:23:26.752Z,9.680974
2022-08-19T08:24:28.483Z,9.681220
2022-08-19T08:25:26.298Z,9.681442
2022-08-19T08:26:26.289Z,9.681442
2022-08-19T08:27:26.473Z,9.681442
2022-08-19T08:28:26.310Z,9.681087
2022-08-19T08:29:26.276Z,9.680938
2022-08-19T08:30:26.256Z,9.681092
2022-08-19T08:31:26.269Z,9.681166
2022-08-19T08:32:26.265Z,9.680928
2022-08-19T08:33:33.926Z,9.680610
2022-08-19T08:34:27.240Z,9.680813
2022-08-19T08:35:26.231Z,9.680559
2022-08-19T08:36:26.220Z,9.680877
2022-08-19T08:37:26.210Z,9.681120
2022-08-19T08:38:26.215Z,9.681334
2022-08-19T08:39:26.190Z,9.681361
2022-08-19T08:40:26.246Z,9.681374
2022-08-19T08:41:26.187Z,9.681354
2022-08-19T08:42:26.179Z,9.681227
2022-08-19T08:43:26.193Z,9.681239
2022-08-19T08:44:26.168Z,9.681471
2022-08-19T08:45:26.158Z,9.680919
2022-08-19T08:46:30.581Z,9.681474
2022-08-19T08:47:26.138Z,9.681397
2022-08-19T08:48:26.124Z,9.681311
2022-08-19T08:49:26.145Z,9.681545
2022-08-19T08:50:26.339Z,9.681560
2022-08-19T08:51:26.127Z,9.680953
2022-08-19T08:52:26.098Z,9.681046
2022-08-19T08:53:31.097Z,9.681192
2022-08-19T08:54:27.106Z,9.681227
2022-08-19T08:55:26.096Z,9.681149
2022-08-19T08:56:26.106Z,9.681349
2022-08-19T08:57:26.092Z,9.681188
2022-08-19T08:58:26.058Z,9.681195
2022-08-19T08:59:26.058Z,9.681331
2022-08-19T09:00:26.034Z,9.681498
2022-08-19T09:01:30.270Z,9.681424
2022-08-19T09:02:26.043Z,9.681467
2022-08-19T09:03:26.014Z,9.681610
2022-08-19T09:04:26.012Z,9.681382
2022-08-19T09:05:26.333Z,9.681513
2022-08-19T09:06:26.112Z,9.680571
2022-08-19T09:07:34.538Z,9.681081
2022-08-19T09:08:26.984Z,9.681136
2022-08-19T09:09:25.978Z,9.681201
2022-08-19T09:10:26.156Z,9.681219
2022-08-19T09:11:42.880Z,9.681245
2022-08-19T09:12:27.183Z,9.681427
2022-08-19T09:13:25.960Z,9.681488
2022-08-19T09:14:49.423Z,9.681473
2022-08-19T09:15:33.570Z,9.681300
2022-08-19T09:16:28.006Z,9.681058
2022-08-19T09:17:25.948Z,9.680902
2022-08-19T09:18:25.903Z,9.681168
2022-08-19T09:19:25.917Z,9.681140
2022-08-19T09:20:26.216Z,9.681124
2022-08-19T09:21:30.428Z,9.681188
2022-08-19T09:22:27.358Z,9.681151
2022-08-19T09:23:27.056Z,9.681127
2022-08-19T09:24:25.890Z,9.681196
2022-08-19T09:25:29.737Z,9.681204
2022-08-19T09:26:25.849Z,9.681192
2022-08-19T09:27:41.756Z,9.681104
2022-08-19T09:28:27.227Z,9.681064
2022-08-19T09:29:25.834Z,9.681323
2022-08-19T09:30:25.837Z,9.681348
2022-08-19T09:31:25.859Z,9.681065
2022-08-19T09:32:26.641Z,9.681218
2022-08-19T09:33:25.801Z,9.681516
2022-08-19T09:34:25.793Z,9.681318
2022-08-19T09:35:25.790Z,9.681041
2022-08-19T09:36:34.475Z,9.681252
2022-08-19T09:37:26.789Z,9.681252
2022-08-19T09:38:25.762Z,9.681141
2022-08-19T09:39:25.759Z,9.681170
2022-08-19T09:40:26.808Z,9.680892
2022-08-19T09:41:25.784Z,9.681054
2022-08-19T09:42:30.422Z,9.681355
2022-08-19T09:43:33.269Z,9.681420
2022-08-19T09:44:26.713Z,9.680891
2022-08-19T09:45:25.730Z,9.681197
2022-08-19T09:46:25.704Z,9.681070
2022-08-19T09:47:25.718Z,9.681368
2022-08-19T09:48:25.716Z,9.681998
2022-08-19T09:49:25.692Z,9.681031
2022-08-19T09:50:25.710Z,9.681099
2022-08-19T09:51:25.724Z,9.681566
2022-08-19T09:52:25.670Z,9.681143
2022-08-19T09:53:26.657Z,9.681297
2022-08-19T09:54:25.664Z,9.681204
2022-08-19T09:55:32.044Z,9.680640
2022-08-19T09:56:26.654Z,9.680867
2022-08-19T09:57:25.634Z,9.681411
2022-08-19T09:58:26.732Z,9.681216
2022-08-19T09:59:25.644Z,9.681266
2022-08-19T10:00:25.630Z,9.681100
2022-08-19T10:01:25.761Z,9.681106
2022-08-19T10:02:25.603Z,9.681004
2022-08-19T10:03:30.011Z,9.681145
2022-08-19T10:04:25.588Z,9.681737
2022-08-19T10:05:26.865Z,9.681632
2022-08-19T10:06:45.798Z,9.681044
2022-08-19T10:07:28.959Z,9.680952
2022-08-19T10:08:26.725Z,9.681332
2022-08-19T10:09:33.952Z,9.681198
2022-08-19T10:10:26.528Z,9.681595
2022-08-19T10:11:28.063Z,9.681391
2022-08-19T10:12:26.518Z,9.681520
2022-08-19T10:13:25.532Z,9.681354
2022-08-19T10:14:25.509Z,9.681258
2022-08-19T10:15:28.792Z,9.681361
2022-08-19T10:16:25.980Z,9.681477
2022-08-19T10:17:27.388Z,9.681731
2022-08-19T10:18:25.478Z,9.681389
2022-08-19T10:19:26.398Z,9.681276
2022-08-19T10:20:25.471Z,9.681190
2022-08-19T10:21:25.594Z,9.681108
2022-08-19T10:22:26.213Z,9.680916
2022-08-19T10:23:25.467Z,9.681350
2022-08-19T10:24:25.439Z,9.680584
2022-08-19T10:25:25.441Z,9.680840
2022-08-19T10:26:26.630Z,9.680419
2022-08-19T10:27:26.340Z,9.681373
2022-08-19T10:28:25.405Z,9.681501
2022-08-19T10:29:32.115Z,9.681248
2022-08-19T10:30:26.393Z,9.681023
2022-08-19T10:31:58.773Z,9.680813
2022-08-19T10:32:34.058Z,9.680730
2022-08-19T10:33:38.814Z,9.680981
2022-08-19T10:34:28.389Z,9.680838
2022-08-19T10:35:25.357Z,9.680854
2022-08-19T10:36:25.362Z,9.681182
2022-08-19T10:37:31.368Z,9.681490
2022-08-19T10:38:32.985Z,9.681528
2022-08-19T10:39:26.327Z,9.681243
2022-08-19T10:40:25.434Z,9.681146
2022-08-19T10:41:25.370Z,9.680881
2022-08-19T10:42:25.306Z,9.681184
2022-08-19T10:43:25.322Z,9.681204
2022-08-19T10:44:25.293Z,9.680886
2022-08-19T10:45:26.311Z,9.681044
2022-08-19T10:46:25.281Z,9.681439
2022-08-19T10:47:26.092Z,9.681508
2022-08-19T10:48:26.282Z,9.681561
2022-08-19T10:49:25.264Z,9.681507
2022-08-19T10:50:28.654Z,9.680744
2022-08-19T10:51:25.258Z,9.681095
2022-08-19T10:52:32.284Z,9.681095
2022-08-19T10:53:26.244Z,9.681048
2022-08-19T10:54:31.204Z,9.681121
2022-08-19T10:55:26.317Z,9.681070
2022-08-19T10:56:25.211Z,9.681160
2022-08-19T10:57:27.937Z,9.681322
2022-08-19T10:58:26.199Z,9.681235
2022-08-19T10:59:26.799Z,9.681305
2022-08-19T11:00:25.184Z,9.681414
2022-08-19T11:01:25.220Z,9.681255
2022-08-19T11:02:25.175Z,9.681511
2022-08-19T11:03:25.179Z,9.681209
2022-08-19T11:04:28.862Z,9.680920
2022-08-19T11:05:25.160Z,9.681220
2022-08-19T11:06:25.147Z,9.681183
2022-08-19T11:07:25.160Z,9.680950
2022-08-19T11:08:25.172Z,9.681162
2022-08-19T11:09:33.142Z,9.681278
2022-08-19T11:10:26.107Z,9.681365
2022-08-19T11:11:25.150Z,9.681404
2022-08-19T11:12:25.107Z,9.681149
2022-08-19T11:13:25.081Z,9.680785
2022-08-19T11:14:25.098Z,9.681210
2022-08-19T11:15:25.112Z,9.681385
2022-08-19T11:16:25.066Z,9.681100
2022-08-19T11:17:25.054Z,9.681142
2022-08-19T11:18:25.053Z,9.681103
2022-08-19T11:19:25.044Z,9.681014
2022-08-19T11:20:25.038Z,9.681149
2022-08-19T11:21:25.122Z,9.681093
2022-08-19T11:22:28.816Z,9.681217
2022-08-19T11:23:26.024Z,9.681182
2022-08-19T11:24:25.009Z,9.680987
2022-08-19T11:25:25.003Z,9.681029
2022-08-19T11:26:24.991Z,9.680936
2022-08-19T11:27:25.022Z,9.681034
2022-08-19T11:28:24.974Z,9.681213
2022-08-19T11:29:24.974Z,9.681286
2022-08-19T11:30:24.958Z,9.681207
2022-08-19T11:31:24.987Z,9.681139
2022-08-19T11:32:24.978Z,9.681190
2022-08-19T11:33:24.961Z,9.680943
2022-08-19T11:34:24.933Z,9.681064
2022-08-19T11:35:24.918Z,9.681267
2022-08-19T11:36:24.915Z,9.681249
2022-08-19T11:37:24.911Z,9.681123
2022-08-19T11:38:24.936Z,9.680887
2022-08-19T11:39:24.896Z,9.680907
2022-08-19T11:40:24.885Z,9.681147
2022-08-19T11:41:24.887Z,9.681123
2022-08-19T11:42:24.871Z,9.681027
2022-08-19T11:43:24.873Z,9.681073
2022-08-19T11:44:24.893Z,9.681561